San Ygnacio, TX (78067)

8:29 AM CDT on August 27, 2016 (GMT -0500)
Zapata | | Change Station

Elev 423 ft 26.97 °N, 99.25 °W | Updated 14 minutes ago

Clear
Clear
76 °F
Feels Like 76 °F
N
4
Wind Variable Wind from East

Today
High -- | Low -- °F
--% Chance of Precip.
Yesterday
High -- | Low -- °F
Precip. -- in
Pressure 29.97 in
Visibility 10.0 miles
Clouds Clear
Dew Point 75 °F
Humidity 95%
Rainfall 0.00 in
Snow Depth Not available.
7:15 AM 8:02 PM
Waning Crescent, 24% visible
METAR KAPY 271315Z AUTO 10003KT 10SM CLR 25/23 A2997 RMK AO2 T02470238
Pressure 29.97 in
Visibility 10.0 miles
Clouds Clear
Dew Point 75 °F
Humidity 95%
Rainfall 0.00 in
Snow Depth Not available.
7:15 AM 8:02 PM
Waning Crescent, 24% visible
METAR KAPY 271315Z AUTO 10003KT 10SM CLR 25/23 A2997 RMK AO2 T02470238

10-Day Weather Forecast

Almanac

Astronomy

Aug. 27, 2016 Rise Set
Actual Time
Civil Twilight
Nautical Twilight
Astronomical Twilight
Moon
Length of Visible Light
Length of Day
Tomorrow will be .
, % of the Moon is Illuminated

Today's Extremes

State Highs State Lows

Community

WunderPhotos

Upload Photos

1,935,337 photos uploaded!

WunderBlog® & News

Nearby

Air Quality

  Air Quality AQ Index Pollutant
Not available.

Snow Depth

Station Depth Elevation

Earthquake Activity

City Distance Mag. Time & Date
Minimum magnitude displayed is 2.5.

Coastal Water Temperatures

Place Temperature

Stations

Nearby Weather Stations

Station Location Temp. Windchill Dew Point Humidity Wind Precip. Elev Updated Type
                   

Watches & Warnings

There are currently no watches in effect.